Terminal Aerodrome Forecast
Issued by NWS

Current Version | Previous Version | Text Only | Print | Product List | Glossary On
Versions: 1 2 3 4 5 6 7 8 9 10 11 12 13 14 15 16 17 18
595
FTUS42 KJAX 271120
TAFCRG
TAF
KCRG 271120Z 2712/2812 00000KT P6SM FEW250
     FM271400 18006KT P6SM SCT040 SCT250
     FM271700 10010KT P6SM SCT050 SCT250
     FM280000 13006KT P6SM FEW050 SCT250=

USA.gov is the U.S. government's official web portal to all federal, state and local government web resources and services.